Time;durP1;ratioP1;P1;durP2;ratioP2;P2;SDS_P1;SDS_P2;PMS_P1;PMS_P2;Temp;Humidity;BMP_temperature;BMP_pressure;BME280_temperature;BME280_humidity;BME280_pressure;Samples;Min_cycle;Max_cycle;Signal;HPM_P1;HPM_P2
2021/12/02 00:01:09;;;;;;;4.38;1.98;;;;;;;-3.70;64.82;97076.97;5156090;27;20042;-61
2021/12/02 00:03:36;;;;;;;3.40;2.55;;;;;;;-3.72;65.47;97083.34;5156538;27;20054;-62
2021/12/02 00:06:02;;;;;;;2.80;1.98;;;;;;;-3.66;66.39;97085.09;5155066;27;20047;-62
2021/12/02 00:08:29;;;;;;;5.40;2.55;;;;;;;-3.67;66.35;97097.25;5156447;27;20041;-64
2021/12/02 00:10:55;;;;;;;4.57;2.65;;;;;;;-3.74;66.81;97095.66;5154512;27;20073;-62
2021/12/02 00:13:24;;;;;;;2.30;2.03;;;;;;;-3.65;66.73;97089.28;5156158;27;20074;-62
2021/12/02 00:21:04;;;;;;;5.82;2.08;;;;;;;-3.64;66.23;97103.84;5156249;27;20039;-60
2021/12/02 00:23:47;;;;;;;3.50;2.33;;;;;;;-3.71;66.28;97108.22;5155949;27;20043;-62
2021/12/02 00:26:16;;;;;;;4.40;2.58;;;;;;;-3.64;67.60;97103.84;5137189;27;20570;-62
2021/12/02 00:28:42;;;;;;;5.93;2.80;;;;;;;-3.69;66.92;97114.00;5154859;27;20039;-62
2021/12/02 00:31:16;;;;;;;2.95;2.22;;;;;;;-3.79;67.37;97118.81;5154730;27;20046;-62
2021/12/02 00:33:47;;;;;;;4.50;2.42;;;;;;;-3.80;67.82;97128.34;5156035;27;20049;-62
2021/12/02 00:36:14;;;;;;;4.13;2.40;;;;;;;-3.75;67.07;97122.56;5155925;27;20045;-62
2021/12/02 00:38:41;;;;;;;2.95;2.17;;;;;;;-3.72;67.60;97122.97;5155643;27;20118;-62
2021/12/02 00:41:26;;;;;;;3.15;2.55;;;;;;;-3.82;67.34;97117.41;5154096;27;20050;-62
2021/12/02 00:43:54;;;;;;;3.55;2.10;;;;;;;-3.85;66.79;97125.56;5154287;27;20047;-62
2021/12/02 00:46:22;;;;;;;2.45;2.03;;;;;;;-3.81;67.12;97128.56;5155494;27;20069;-62
2021/12/02 00:48:49;;;;;;;3.55;1.90;;;;;;;-3.81;67.09;97134.53;5155150;27;20065;-62
2021/12/02 00:51:16;;;;;;;5.05;2.40;;;;;;;-3.91;67.37;97128.97;5155213;27;20425;-61
2021/12/02 00:53:46;;;;;;;2.65;1.80;;;;;;;-3.85;68.03;97138.53;5155364;27;20046;-61
2021/12/02 00:56:16;;;;;;;2.90;1.90;;;;;;;-3.78;68.12;97141.88;5155577;27;20547;-62
2021/12/02 00:58:45;;;;;;;2.50;2.00;;;;;;;-3.74;67.15;97135.28;5154958;27;20698;-62
2021/12/02 01:01:12;;;;;;;2.00;1.80;;;;;;;-3.83;67.58;97143.47;5155424;27;20049;-61
2021/12/02 01:03:37;;;;;;;3.05;1.92;;;;;;;-3.78;67.24;97141.88;5153910;27;20042;-62
2021/12/02 01:06:05;;;;;;;2.20;1.77;;;;;;;-3.70;66.53;97153.84;5155337;27;20097;-62
2021/12/02 01:08:32;;;;;;;2.70;1.90;;;;;;;-3.63;66.71;97156.41;5154438;27;20030;-61
2021/12/02 01:10:58;;;;;;;2.45;2.10;;;;;;;-3.59;66.20;97158.38;5153654;27;20049;-60
2021/12/02 01:13:24;;;;;;;2.58;2.10;;;;;;;-3.62;66.60;97158.78;5136564;27;20039;-63
2021/12/02 01:15:50;;;;;;;2.60;1.70;;;;;;;-3.71;65.77;97160.00;5154880;27;20074;-62
2021/12/02 01:18:16;;;;;;;2.15;1.73;;;;;;;-3.84;65.70;97158.22;5154905;27;20043;-63
2021/12/02 01:20:45;;;;;;;3.40;2.00;;;;;;;-3.74;66.89;97168.16;5155282;27;20042;-61
2021/12/02 01:23:11;;;;;;;5.20;2.03;;;;;;;-3.71;66.45;97171.13;5154729;27;20089;-62
2021/12/02 01:25:37;;;;;;;2.28;1.77;;;;;;;-3.64;65.84;97184.09;5155237;27;20038;-62
2021/12/02 01:28:04;;;;;;;4.57;2.00;;;;;;;-3.71;65.14;97178.91;5135473;27;20039;-63
2021/12/02 01:30:31;;;;;;;7.05;2.55;;;;;;;-3.72;65.74;97182.50;5154726;27;20035;-61
2021/12/02 01:33:03;;;;;;;3.33;1.88;;;;;;;-3.64;64.52;97193.66;5154867;27;20039;-62
2021/12/02 01:35:29;;;;;;;2.85;2.30;;;;;;;-3.57;64.43;97200.41;5154606;27;20129;-61
2021/12/02 01:37:55;;;;;;;2.25;1.95;;;;;;;-3.59;65.32;97202.41;5154493;27;20081;-62
2021/12/02 01:40:21;;;;;;;3.08;1.60;;;;;;;-3.55;64.93;97184.69;5154817;27;20580;-61
2021/12/02 01:42:51;;;;;;;2.80;2.00;;;;;;;-3.52;65.02;97190.25;5153749;27;20039;-62
2021/12/02 01:45:20;;;;;;;2.65;2.00;;;;;;;-3.59;65.22;97202.41;5154112;27;20175;-63
2021/12/02 01:47:49;;;;;;;1.92;1.50;;;;;;;-3.63;64.33;97196.03;5154149;27;20548;-61
2021/12/02 01:50:17;;;;;;;4.43;1.80;;;;;;;-3.53;65.40;97193.03;5154176;27;20424;-62
2021/12/02 01:52:45;;;;;;;2.50;1.73;;;;;;;-3.48;64.43;97204.38;5154188;27;20495;-62
2021/12/02 01:55:13;;;;;;;2.42;1.77;;;;;;;-3.44;63.81;97199.63;5154137;27;20480;-61
2021/12/02 01:57:42;;;;;;;2.13;1.63;;;;;;;-3.38;64.08;97205.78;5152789;27;20519;-62
2021/12/02 02:00:11;;;;;;;3.05;1.95;;;;;;;-3.38;64.25;97196.22;5153027;27;20119;-61
2021/12/02 02:02:40;;;;;;;4.97;2.05;;;;;;;-3.43;63.59;97202.00;5152855;27;20039;-62
2021/12/02 02:05:12;;;;;;;1.83;1.63;;;;;;;-3.38;63.33;97209.19;5153433;27;20107;-62
2021/12/02 02:08:02;;;;;;;1.70;1.60;;;;;;;-3.37;63.59;97205.59;5153953;27;20484;-60
2021/12/02 02:10:30;;;;;;;1.98;1.45;;;;;;;-3.35;63.08;97206.19;5153804;27;20083;-61
2021/12/02 02:12:58;;;;;;;4.20;1.85;;;;;;;-3.35;62.68;97213.97;5153471;27;20039;-61
2021/12/02 02:15:28;;;;;;;1.90;1.70;;;;;;;-3.42;62.92;97208.75;5154118;27;20053;-62
2021/12/02 02:18:14;;;;;;;3.85;1.80;;;;;;;-3.40;64.06;97211.16;5152777;27;20038;-62
2021/12/02 02:20:41;;;;;;;2.17;1.70;;;;;;;-3.48;63.92;97213.97;5152709;27;20039;-62
2021/12/02 02:23:10;;;;;;;3.85;1.85;;;;;;;-3.42;63.91;97207.97;5153138;27;20069;-61
2021/12/02 02:25:36;;;;;;;3.00;1.75;;;;;;;-3.40;63.33;97224.13;5133245;27;20043;-62
2021/12/02 02:28:02;;;;;;;3.72;2.00;;;;;;;-3.35;63.46;97219.13;5133199;27;20035;-61
2021/12/02 02:30:28;;;;;;;3.42;2.08;;;;;;;-3.23;62.65;97221.91;5132960;27;20047;-62
2021/12/02 02:32:56;;;;;;;3.28;2.00;;;;;;;-3.22;62.19;97224.28;5145346;27;20046;-61
2021/12/02 02:35:22;;;;;;;2.55;1.80;;;;;;;-3.24;61.58;97223.69;5152187;27;20045;-61
2021/12/02 02:37:47;;;;;;;2.60;1.88;;;;;;;-3.27;62.47;97231.84;5153394;27;20105;-63
2021/12/02 02:40:15;;;;;;;2.50;1.90;;;;;;;-3.25;62.70;97234.25;5152253;27;20043;-62
2021/12/02 02:42:45;;;;;;;3.50;1.70;;;;;;;-3.23;62.72;97240.84;5151322;27;20042;-62
2021/12/02 02:45:11;;;;;;;2.20;1.90;;;;;;;-3.21;62.62;97246.63;5152086;27;20085;-62
2021/12/02 02:47:37;;;;;;;2.40;1.88;;;;;;;-3.31;63.17;97237.66;5152120;27;20363;-62
2021/12/02 02:50:03;;;;;;;3.80;1.83;;;;;;;-3.33;63.44;97248.22;5153584;27;20440;-62
2021/12/02 02:52:33;;;;;;;1.42;1.33;;;;;;;-3.42;62.48;97226.91;5153218;27;20040;-62
2021/12/02 02:54:59;;;;;;;1.60;1.50;;;;;;;-3.36;62.88;97240.84;5152603;27;20137;-62
2021/12/02 02:57:28;;;;;;;3.92;2.13;;;;;;;-3.34;63.35;97245.84;5153081;27;20374;-62
2021/12/02 03:02:41;;;;;;;2.17;1.65;;;;;;;-3.40;63.46;97246.63;5130320;27;20454;-62
2021/12/02 03:05:20;;;;;;;1.88;1.60;;;;;;;-3.38;64.12;97247.22;5132525;27;20047;-62
2021/12/02 03:07:52;;;;;;;2.00;1.50;;;;;;;-3.26;63.50;97256.00;5114004;28;20035;-61
2021/12/02 03:18:27;;;;;;;2.60;1.65;;;;;;;-3.21;63.77;97264.75;5152949;27;20180;-62
2021/12/02 03:20:52;;;;;;;1.85;1.65;;;;;;;-3.17;63.04;97267.75;5152174;27;20551;-61
2021/12/02 03:23:19;;;;;;;2.45;1.73;;;;;;;-3.15;63.72;97270.13;5152460;27;20053;-62
2021/12/02 03:25:46;;;;;;;2.97;1.80;;;;;;;-3.13;64.08;97271.50;5151690;27;20192;-61
2021/12/02 03:28:12;;;;;;;3.50;1.80;;;;;;;-3.13;62.36;97276.69;5152958;27;20508;-62
2021/12/02 03:30:38;;;;;;;4.70;2.50;;;;;;;-3.26;63.22;97282.69;5152503;27;20050;-61
2021/12/02 03:33:04;;;;;;;3.05;1.83;;;;;;;-3.29;63.59;97282.31;5152719;27;20046;-61
2021/12/02 03:35:30;;;;;;;1.90;1.80;;;;;;;-3.33;63.66;97283.69;5151483;27;20042;-61
2021/12/02 03:37:56;;;;;;;2.53;1.63;;;;;;;-3.44;63.80;97290.28;5151223;27;20034;-63
2021/12/02 03:40:23;;;;;;;2.03;1.75;;;;;;;-3.47;64.31;97296.66;5151549;27;20457;-62
2021/12/02 03:42:52;;;;;;;2.67;1.85;;;;;;;-3.30;64.29;97294.44;5152763;27;20084;-62
2021/12/02 03:45:18;;;;;;;1.60;1.50;;;;;;;-3.33;63.87;97292.25;5152328;27;20496;-63
2021/12/02 03:47:45;;;;;;;1.92;1.67;;;;;;;-3.42;63.59;97294.25;5133950;27;20121;-60
2021/12/02 03:50:11;;;;;;;2.88;1.55;;;;;;;-3.35;64.99;97304.63;5152593;27;20038;-60
2021/12/02 03:52:37;;;;;;;2.17;1.98;;;;;;;-3.36;64.12;97292.66;5152474;27;20046;-63
2021/12/02 03:55:03;;;;;;;2.17;1.45;;;;;;;-3.40;64.65;97304.41;5133940;27;20059;-61
2021/12/02 03:57:31;;;;;;;2.10;1.70;;;;;;;-3.49;64.54;97306.41;5152544;27;20049;-62
2021/12/02 04:00:01;;;;;;;1.60;1.50;;;;;;;-3.57;63.91;97278.09;5152206;27;20407;-62
2021/12/02 04:02:27;;;;;;;1.90;1.52;;;;;;;-3.54;65.18;97308.00;5152653;27;20134;-61
2021/12/02 04:04:53;;;;;;;3.05;1.73;;;;;;;-3.54;65.21;97308.78;5153415;27;20054;-62
2021/12/02 04:07:20;;;;;;;2.25;1.80;;;;;;;-3.44;65.15;97305.81;5155948;27;20061;-63
2021/12/02 04:09:47;;;;;;;2.58;1.95;;;;;;;-3.44;64.93;97327.34;5156406;27;20081;-61
2021/12/02 04:12:28;;;;;;;2.08;1.80;;;;;;;-3.57;64.65;97306.59;5154808;27;20039;-61
2021/12/02 04:15:00;;;;;;;2.83;1.85;;;;;;;-3.56;65.17;97321.16;5137693;27;20046;-62
2021/12/02 04:17:40;;;;;;;3.15;1.98;;;;;;;-3.69;64.42;97323.72;5156355;27;20035;-62
2021/12/02 04:20:10;;;;;;;3.08;2.00;;;;;;;-3.68;65.09;97317.53;5156006;27;20047;-62
2021/12/02 04:22:35;;;;;;;3.35;1.70;;;;;;;-3.57;65.08;97334.28;5154727;27;20415;-61
2021/12/02 04:25:01;;;;;;;2.72;1.80;;;;;;;-3.60;64.81;97332.09;5156167;27;20061;-61
2021/12/02 04:27:28;;;;;;;2.25;1.73;;;;;;;-3.75;64.83;97340.03;5155515;27;20039;-62
2021/12/02 04:29:54;;;;;;;2.45;1.88;;;;;;;-3.66;65.24;97333.69;5156044;27;20476;-61
2021/12/02 04:32:20;;;;;;;1.85;1.55;;;;;;;-3.62;66.12;97324.50;5155844;27;20062;-62
2021/12/02 04:34:46;;;;;;;3.33;1.80;;;;;;;-3.62;64.96;97326.31;5136969;27;20420;-61
2021/12/02 04:37:12;;;;;;;4.32;2.03;;;;;;;-3.58;64.99;97325.72;5155019;27;20038;-62
2021/12/02 04:39:38;;;;;;;3.83;2.22;;;;;;;-3.62;65.40;97334.88;5155375;27;20050;-62
2021/12/02 04:42:04;;;;;;;3.55;1.98;;;;;;;-3.59;66.54;97333.69;5154223;27;20552;-63
2021/12/02 04:44:30;;;;;;;4.03;1.77;;;;;;;-3.63;65.64;97333.28;5155167;27;20051;-61
2021/12/02 04:46:55;;;;;;;3.05;1.90;;;;;;;-3.65;66.00;97340.44;5155100;27;20034;-63
2021/12/02 04:49:21;;;;;;;2.65;2.03;;;;;;;-3.55;65.66;97340.88;5155038;27;20049;-61
2021/12/02 04:51:47;;;;;;;3.72;1.80;;;;;;;-3.73;65.26;97340.66;5154006;27;20397;-63
2021/12/02 04:54:13;;;;;;;2.83;1.90;;;;;;;-3.71;65.47;97341.22;5119716;27;20067;-62
2021/12/02 04:56:39;;;;;;;3.05;2.00;;;;;;;-3.84;64.44;97344.59;5152762;27;20165;-61
2021/12/02 04:59:05;;;;;;;4.70;2.28;;;;;;;-3.93;65.72;97351.75;5153696;27;20053;-62
2021/12/02 05:01:30;;;;;;;2.90;1.92;;;;;;;-4.05;65.68;97358.47;5153854;27;20110;-61
2021/12/02 05:03:56;;;;;;;2.92;1.85;;;;;;;-4.12;65.19;97350.69;5147248;27;20047;-61
2021/12/02 05:06:22;;;;;;;1.95;1.65;;;;;;;-4.08;65.65;97364.03;5148341;27;20415;-62
2021/12/02 05:08:48;;;;;;;2.25;1.80;;;;;;;-4.11;65.36;97357.47;5151106;27;20442;-62
2021/12/02 05:11:14;;;;;;;2.65;2.03;;;;;;;-4.10;66.10;97363.44;5147598;27;20403;-62
2021/12/02 05:13:39;;;;;;;3.35;2.28;;;;;;;-4.17;65.39;97366.00;5150388;27;20043;-61
2021/12/02 05:16:05;;;;;;;2.38;1.98;;;;;;;-4.22;65.80;97370.94;5149293;27;20046;-62
2021/12/02 05:18:31;;;;;;;4.63;2.35;;;;;;;-4.26;65.49;97364.56;5150118;27;20051;-62
2021/12/02 05:20:59;;;;;;;2.95;1.65;;;;;;;-4.33;65.29;97371.47;5149462;27;20042;-61
2021/12/02 05:23:25;;;;;;;3.38;2.20;;;;;;;-4.39;65.27;97373.03;5149529;27;20038;-61
2021/12/02 05:25:51;;;;;;;2.90;1.90;;;;;;;-4.50;65.57;97363.25;5147020;27;20107;-60
2021/12/02 05:28:17;;;;;;;2.83;1.85;;;;;;;-4.64;66.21;97374.50;5148753;27;20745;-60
2021/12/02 05:30:45;;;;;;;2.78;2.13;;;;;;;-4.70;66.80;97375.28;5148072;27;20051;-61
2021/12/02 05:33:11;;;;;;;3.17;2.20;;;;;;;-4.69;66.60;97374.28;5148394;27;20496;-60
2021/12/02 05:35:36;;;;;;;3.30;2.20;;;;;;;-4.72;66.38;97372.88;5149904;27;20038;-61
2021/12/02 05:38:03;;;;;;;3.58;1.83;;;;;;;-4.78;66.96;97378.78;5150790;27;20407;-64
2021/12/02 05:40:29;;;;;;;4.65;2.53;;;;;;;-4.74;67.44;97376.63;5148246;27;20039;-60
2021/12/02 05:42:54;;;;;;;4.18;2.00;;;;;;;-4.78;66.97;97396.88;5150404;27;20041;-61
2021/12/02 05:45:20;;;;;;;2.75;2.17;;;;;;;-4.81;67.00;97395.47;5146706;27;20075;-59
2021/12/02 05:47:46;;;;;;;4.38;2.30;;;;;;;-4.74;67.70;97411.03;5147782;27;20099;-59
2021/12/02 05:50:12;;;;;;;5.40;2.20;;;;;;;-4.65;67.16;97415.06;5148061;27;20422;-61
2021/12/02 05:52:38;;;;;;;2.90;1.95;;;;;;;-4.57;67.22;97411.53;5149654;27;20045;-62
2021/12/02 05:55:04;;;;;;;3.75;2.20;;;;;;;-4.52;67.34;97406.59;5148374;27;20043;-61
2021/12/02 05:57:31;;;;;;;3.72;2.28;;;;;;;-4.31;66.41;97423.84;5148457;27;20386;-60
2021/12/02 05:59:58;;;;;;;3.70;2.17;;;;;;;-4.26;66.49;97425.84;5148565;27;20085;-59
2021/12/02 06:02:24;;;;;;;2.70;2.00;;;;;;;-4.35;65.69;97425.22;5142896;27;20053;-61
2021/12/02 06:04:53;;;;;;;2.95;1.85;;;;;;;-4.30;65.65;97427.22;5150999;27;20051;-61
2021/12/02 06:07:20;;;;;;;5.32;2.47;;;;;;;-4.26;66.07;97425.84;5149570;27;20066;-60
2021/12/02 06:09:46;;;;;;;2.70;2.45;;;;;;;-4.25;65.50;97430.81;5148797;27;20399;-60
2021/12/02 06:12:12;;;;;;;3.35;2.17;;;;;;;-4.19;65.00;97411.94;5135900;27;20042;-59
2021/12/02 06:14:38;;;;;;;2.42;1.98;;;;;;;-4.18;64.15;97429.06;5129095;27;20046;-59
2021/12/02 06:17:04;;;;;;;4.35;2.20;;;;;;;-4.07;65.05;97434.69;5129051;27;20503;-61
2021/12/02 06:19:30;;;;;;;4.18;2.60;;;;;;;-4.05;65.27;97436.13;5148016;27;20610;-61
2021/12/02 06:21:56;;;;;;;3.80;2.33;;;;;;;-3.90;65.02;97441.94;5141553;27;20039;-60
2021/12/02 06:24:29;;;;;;;3.38;2.20;;;;;;;-3.85;64.61;97446.56;5150354;27;20556;-58
2021/12/02 06:26:56;;;;;;;3.95;2.10;;;;;;;-3.69;64.37;97448.00;5149214;27;20031;-57
2021/12/02 06:29:22;;;;;;;2.85;2.20;;;;;;;-3.73;63.25;97450.19;5148684;27;20041;-59
2021/12/02 06:31:48;;;;;;;2.75;2.10;;;;;;;-3.60;63.66;97462.38;5149528;27;20443;-58
2021/12/02 06:34:14;;;;;;;3.20;2.20;;;;;;;-3.72;63.14;97449.19;5151331;27;20046;-60
2021/12/02 06:36:40;;;;;;;5.20;2.63;;;;;;;-3.73;62.78;97457.16;5150741;27;20035;-60
2021/12/02 06:39:06;;;;;;;3.80;2.40;;;;;;;-3.64;63.38;97453.41;5151803;27;20111;-60
2021/12/02 06:41:33;;;;;;;5.15;2.47;;;;;;;-3.67;61.96;97467.53;5150084;27;20231;-59
2021/12/02 06:43:59;;;;;;;3.22;2.22;;;;;;;-3.51;63.52;97465.59;5149361;27;20051;-59
2021/12/02 06:46:25;;;;;;;3.75;2.30;;;;;;;-3.30;62.23;97464.66;5147825;27;20504;-58
2021/12/02 06:48:52;;;;;;;2.58;2.10;;;;;;;-3.20;63.10;97463.28;5149698;27;20157;-60
2021/12/02 06:51:19;;;;;;;3.63;2.30;;;;;;;-3.21;61.82;97459.13;5150259;27;20496;-60
2021/12/02 06:53:45;;;;;;;5.85;2.08;;;;;;;-3.13;61.91;97472.88;5151074;27;20042;-59
2021/12/02 06:56:11;;;;;;;4.75;2.42;;;;;;;-3.12;61.82;97472.66;5151755;27;20130;-60
2021/12/02 06:58:37;;;;;;;3.05;2.20;;;;;;;-3.04;62.27;97469.09;5151069;27;20074;-59
2021/12/02 07:01:03;;;;;;;3.67;2.10;;;;;;;-3.04;61.84;97463.91;5150304;27;20130;-59
2021/12/02 07:03:29;;;;;;;3.10;2.13;;;;;;;-2.95;62.44;97459.34;5148104;27;20043;-61
2021/12/02 07:05:55;;;;;;;4.97;2.30;;;;;;;-2.90;60.93;97459.53;5147813;27;20095;-59
2021/12/02 07:08:21;;;;;;;3.88;2.20;;;;;;;-3.02;60.51;97443.78;5146250;27;20133;-60
2021/12/02 07:10:47;;;;;;;3.45;2.20;;;;;;;-2.89;60.50;97464.50;5150018;27;20714;-61
2021/12/02 07:13:13;;;;;;;3.00;2.42;;;;;;;-2.79;61.78;97458.97;5149339;27;20393;-61
2021/12/02 07:15:45;;;;;;;4.28;2.70;;;;;;;-2.63;61.98;97457.75;5150346;27;20046;-61
2021/12/02 07:18:15;;;;;;;4.05;2.47;;;;;;;-2.76;60.42;97468.94;5149333;27;20043;-59
2021/12/02 07:20:42;;;;;;;5.15;2.40;;;;;;;-2.71;61.20;97463.91;5150898;27;20449;-61
2021/12/02 07:23:08;;;;;;;5.03;2.53;;;;;;;-2.84;60.12;97456.94;5137243;27;20039;-59
2021/12/02 07:25:34;;;;;;;4.45;2.55;;;;;;;-2.71;59.85;97453.53;5129621;27;20046;-58
2021/12/02 07:28:01;;;;;;;3.17;2.40;;;;;;;-2.54;60.12;97459.94;5128133;28;20449;-66
2021/12/02 07:30:27;;;;;;;5.50;2.58;;;;;;;-2.41;60.29;97460.91;5109283;28;20035;-61
2021/12/02 07:32:57;;;;;;;4.05;2.53;;;;;;;-2.29;59.72;97448.94;5134617;27;20035;-60
2021/12/02 07:35:23;;;;;;;4.45;2.80;;;;;;;-2.22;61.00;97460.09;5130210;27;20042;-60
2021/12/02 07:37:52;;;;;;;5.75;3.05;;;;;;;-2.20;58.54;97460.69;5150328;27;20050;-60
2021/12/02 07:40:21;;;;;;;7.07;3.60;;;;;;;-2.19;58.61;97474.47;5152676;27;20039;-61
2021/12/02 07:42:48;;;;;;;3.50;2.65;;;;;;;-2.07;60.77;97472.84;5150525;27;20049;-59
2021/12/02 07:45:15;;;;;;;4.70;2.58;;;;;;;-2.02;57.92;97462.66;5154141;27;20047;-58
2021/12/02 07:47:41;;;;;;;3.08;2.38;;;;;;;-2.10;57.96;97457.69;5154101;27;20050;-60
2021/12/02 07:50:12;;;;;;;4.10;2.47;;;;;;;-1.99;58.11;97466.66;5153913;27;20130;-60
2021/12/02 07:52:45;;;;;;;5.65;2.63;;;;;;;-1.96;59.43;97458.44;5151240;27;20416;-59
2021/12/02 07:55:13;;;;;;;3.92;2.47;;;;;;;-1.89;59.02;97465.19;5120118;27;20073;-60
2021/12/02 07:57:42;;;;;;;5.65;2.50;;;;;;;-1.79;59.05;97462.19;5136873;27;20034;-59
2021/12/02 08:00:08;;;;;;;4.13;2.45;;;;;;;-1.73;57.54;97455.38;5132824;27;20520;-60
2021/12/02 08:02:35;;;;;;;5.40;2.20;;;;;;;-1.87;58.81;97454.63;5149911;27;20042;-63
2021/12/02 08:05:02;;;;;;;3.75;2.58;;;;;;;-1.80;59.36;97442.41;5150401;27;20051;-59
2021/12/02 08:07:29;;;;;;;3.25;2.20;;;;;;;-1.69;59.32;97443.56;5150723;27;20636;-59
2021/12/02 08:09:55;;;;;;;3.70;2.35;;;;;;;-1.88;59.23;97448.63;5150586;27;20047;-60
2021/12/02 08:12:21;;;;;;;4.72;2.45;;;;;;;-1.80;59.12;97442.41;5125185;27;20039;-62
2021/12/02 08:14:46;;;;;;;3.90;2.42;;;;;;;-1.81;58.77;97437.41;5125695;27;20512;-58
2021/12/02 08:17:12;;;;;;;4.60;2.33;;;;;;;-1.79;58.50;97441.41;5130563;27;20063;-61
2021/12/02 08:19:38;;;;;;;4.20;2.47;;;;;;;-1.74;59.49;97436.38;5133889;27;20041;-61
2021/12/02 08:22:04;;;;;;;4.93;3.40;;;;;;;-1.78;59.02;97431.81;5151175;27;20042;-61
2021/12/02 08:24:29;;;;;;;3.13;2.58;;;;;;;-1.78;60.25;97421.44;5153549;27;20053;-60
2021/12/02 08:26:55;;;;;;;4.47;2.67;;;;;;;-1.86;59.12;97419.84;5134552;27;20559;-60
2021/12/02 08:29:22;;;;;;;4.10;3.08;;;;;;;-1.72;60.59;97425.78;5154523;27;20053;-60
2021/12/02 08:31:48;;;;;;;6.07;3.38;;;;;;;-1.63;60.63;97424.53;5149662;27;20053;-60
2021/12/02 08:34:16;;;;;;;12.48;2.90;;;;;;;-1.67;59.25;97426.78;5153747;27;20046;-59
2021/12/02 08:36:49;;;;;;;5.57;3.03;;;;;;;-1.70;59.76;97421.19;5152656;27;20130;-58
2021/12/02 08:39:17;;;;;;;9.52;3.20;;;;;;;-1.67;60.07;97418.19;5152936;27;20099;-59
2021/12/02 08:41:47;;;;;;;8.98;3.22;;;;;;;-1.72;60.99;97412.81;5153172;27;20042;-61
2021/12/02 08:44:14;;;;;;;3.70;2.80;;;;;;;-1.76;60.00;97411.63;5153395;27;20051;-59
2021/12/02 08:46:40;;;;;;;5.53;3.28;;;;;;;-1.55;60.90;97413.13;5149913;27;20042;-61
2021/12/02 08:49:06;;;;;;;5.45;2.90;;;;;;;-1.77;59.67;97417.81;5151007;27;20047;-61
2021/12/02 08:51:32;;;;;;;5.40;3.13;;;;;;;-1.71;61.06;97422.19;5149556;27;20610;-62
2021/12/02 08:53:58;;;;;;;6.13;3.55;;;;;;;-1.64;59.84;97417.75;5151854;27;20126;-62
2021/12/02 08:56:24;;;;;;;5.05;3.10;;;;;;;-1.50;61.76;97423.66;5147032;27;20083;-59
2021/12/02 08:58:51;;;;;;;9.98;3.53;;;;;;;-1.46;60.73;97425.66;5150130;27;20047;-61
2021/12/02 09:01:18;;;;;;;4.85;3.33;;;;;;;-1.43;59.91;97417.44;5153282;27;20042;-60
2021/12/02 09:03:43;;;;;;;6.03;3.05;;;;;;;-1.56;59.81;97408.91;5153164;27;20492;-57
2021/12/02 09:06:11;;;;;;;5.50;2.95;;;;;;;-1.44;61.19;97420.25;5152139;27;20042;-60
2021/12/02 09:08:38;;;;;;;5.90;3.40;;;;;;;-1.56;59.86;97412.31;5151558;27;20132;-59
2021/12/02 09:11:04;;;;;;;5.55;3.47;;;;;;;-1.65;60.63;97419.56;5153450;27;20412;-61
2021/12/02 09:13:31;;;;;;;5.97;3.88;;;;;;;-1.51;60.37;97422.88;5151260;27;20507;-59
2021/12/02 09:15:57;;;;;;;5.55;3.42;;;;;;;-1.65;59.60;97411.78;5152629;27;20039;-59
2021/12/02 09:18:23;;;;;;;6.15;3.55;;;;;;;-1.55;60.27;97406.13;5135401;27;20501;-59
2021/12/02 09:20:49;;;;;;;5.35;3.22;;;;;;;-1.62;60.85;97416.56;5128559;27;20071;-68
2021/12/02 09:23:15;;;;;;;12.07;4.20;;;;;;;-1.63;60.34;97414.16;5128296;27;20081;-60
2021/12/02 09:25:42;;;;;;;6.80;3.75;;;;;;;-1.50;60.94;97408.09;5130081;27;20523;-59
2021/12/02 09:28:08;;;;;;;9.95;4.28;;;;;;;-1.54;60.62;97406.91;5141602;27;20080;-59
2021/12/02 09:30:35;;;;;;;6.13;3.90;;;;;;;-1.62;60.53;97402.75;5149576;27;20126;-59
2021/12/02 09:33:01;;;;;;;8.18;4.10;;;;;;;-1.50;61.63;97400.28;5150828;27;20035;-60
2021/12/02 09:35:26;;;;;;;7.35;4.45;;;;;;;-1.38;60.08;97396.84;5150830;27;20054;-60
2021/12/02 09:37:52;;;;;;;5.88;3.50;;;;;;;-1.34;61.09;97394.59;5150735;27;20047;-61
2021/12/02 09:40:19;;;;;;;6.43;3.63;;;;;;;-1.47;60.12;97390.28;5113827;27;20100;-61
2021/12/02 09:42:45;;;;;;;8.00;4.07;;;;;;;-1.57;60.27;97384.75;5148878;27;20400;-60
2021/12/02 09:45:12;;;;;;;14.10;6.28;;;;;;;-1.55;62.10;97387.94;5131159;27;20527;-61
2021/12/02 09:47:40;;;;;;;7.50;4.85;;;;;;;-1.52;60.92;97384.13;5149827;27;20583;-63
2021/12/02 09:50:12;;;;;;;8.07;4.40;;;;;;;-1.70;60.91;97375.22;5149229;27;20042;-60
2021/12/02 09:52:42;;;;;;;5.32;4.22;;;;;;;-1.80;61.59;97379.28;5150468;27;20099;-60
2021/12/02 09:57:44;;;;;;;8.80;4.40;;;;;;;-1.61;61.57;97386.19;5150945;27;20480;-61
2021/12/02 10:00:17;;;;;;;7.22;4.53;;;;;;;-1.58;62.58;97377.97;5149555;27;20411;-61
2021/12/02 10:02:52;;;;;;;6.80;3.80;;;;;;;-1.56;61.67;97375.94;5149407;27;20118;-61
2021/12/02 10:05:54;;;;;;;7.80;3.85;;;;;;;-1.46;62.86;97381.47;5150535;27;20038;-62
2021/12/02 10:08:26;;;;;;;8.98;3.95;;;;;;;-1.45;60.91;97377.09;5150729;27;20046;-59
2021/12/02 10:10:59;;;;;;;6.05;3.80;;;;;;;-1.24;63.03;97374.13;5143864;27;20039;-62
2021/12/02 10:13:28;;;;;;;6.03;3.85;;;;;;;-1.09;61.01;97381.63;5151899;27;20117;-61
2021/12/02 10:16:05;;;;;;;6.90;3.77;;;;;;;-1.07;60.14;97371.81;5152564;27;20049;-59
2021/12/02 10:18:42;;;;;;;6.55;3.70;;;;;;;-1.10;61.77;97368.84;5150315;27;20379;-61
2021/12/02 10:21:21;;;;;;;8.95;3.70;;;;;;;-1.10;61.33;97364.44;5150998;27;20046;-61
2021/12/02 10:23:47;;;;;;;7.45;3.72;;;;;;;-1.10;59.65;97359.22;5148378;27;20074;-61
2021/12/02 10:26:18;;;;;;;11.60;4.82;;;;;;;-1.13;60.58;97356.28;5149362;27;20041;-62
2021/12/02 10:28:44;;;;;;;6.60;3.80;;;;;;;-1.14;60.47;97360.69;5148065;27;20567;-62
2021/12/02 10:31:16;;;;;;;4.82;3.22;;;;;;;-1.17;60.83;97361.09;5145904;27;20504;-61
2021/12/02 10:33:53;;;;;;;8.68;4.25;;;;;;;-1.23;60.21;97359.34;5149491;27;20039;-62
2021/12/02 10:36:35;;;;;;;6.20;3.80;;;;;;;-1.32;59.43;97356.22;5148352;27;20046;-65
2021/12/02 10:39:20;;;;;;;7.20;3.95;;;;;;;-1.29;59.86;97355.00;5149638;27;20051;-62
2021/12/02 10:41:47;;;;;;;7.15;4.50;;;;;;;-1.25;60.64;97348.34;5147531;27;20041;-62
2021/12/02 10:44:24;;;;;;;8.88;4.55;;;;;;;-1.33;61.77;97340.81;5114690;27;20043;-61
2021/12/02 10:46:53;;;;;;;7.35;4.00;;;;;;;-1.19;60.98;97337.13;5151725;27;20057;-62
2021/12/02 10:49:19;;;;;;;7.40;4.18;;;;;;;-1.15;61.14;97344.28;5150167;27;20050;-62
2021/12/02 10:51:54;;;;;;;9.13;3.83;;;;;;;-1.11;60.57;97336.06;5151169;27;20035;-62
2021/12/02 10:54:26;;;;;;;6.55;4.05;;;;;;;-1.12;61.00;97324.84;5131065;27;20039;-62
2021/12/02 10:56:55;;;;;;;4.82;3.33;;;;;;;-1.07;60.40;97325.00;5147793;27;20042;-63
2021/12/02 10:59:31;;;;;;;6.05;3.67;;;;;;;-1.00;59.62;97330.16;5149023;27;20030;-63
2021/12/02 11:02:00;;;;;;;8.73;4.28;;;;;;;-0.94;61.40;97326.72;5149698;27;20042;-63
2021/12/02 11:04:27;;;;;;;9.27;3.58;;;;;;;-0.87;61.02;97331.84;5149267;27;20407;-62
2021/12/02 11:07:00;;;;;;;8.30;4.82;;;;;;;-0.93;59.06;97329.09;5127845;27;20405;-62
2021/12/02 11:09:29;;;;;;;6.30;3.65;;;;;;;-1.05;61.19;97330.81;5151214;27;20042;-60
2021/12/02 11:12:15;;;;;;;8.10;3.70;;;;;;;-0.94;60.73;97327.50;5150312;27;20034;-62
2021/12/02 11:14:50;;;;;;;5.68;3.33;;;;;;;-0.93;61.00;97320.50;5149456;27;20042;-62
2021/12/02 11:17:16;;;;;;;5.70;3.80;;;;;;;-0.88;60.85;97314.63;5154569;27;20050;-61
2021/12/02 11:19:44;;;;;;;6.30;3.40;;;;;;;-0.84;62.54;97321.00;5152709;27;20042;-61
2021/12/02 11:22:14;;;;;;;4.75;3.40;;;;;;;-1.08;60.88;97318.22;5152895;27;20030;-62
2021/12/02 11:24:41;;;;;;;5.88;3.58;;;;;;;-1.19;62.66;97313.72;5149160;27;20043;-62
2021/12/02 11:27:15;;;;;;;7.20;3.33;;;;;;;-1.41;62.82;97301.09;5151683;27;20145;-61
2021/12/02 11:29:54;;;;;;;5.05;3.13;;;;;;;-1.56;63.43;97299.78;5153698;27;20078;-62
2021/12/02 11:32:37;;;;;;;15.18;7.15;;;;;;;-1.46;63.46;97300.13;5154135;27;20043;-69
2021/12/02 11:35:09;;;;;;;5.05;2.70;;;;;;;-1.48;63.73;97292.53;5153037;27;20401;-62
2021/12/02 11:37:37;;;;;;;7.20;3.50;;;;;;;-1.53;64.04;97284.59;5152780;27;20046;-63
2021/12/02 11:40:12;;;;;;;4.57;3.35;;;;;;;-1.60;64.64;97278.66;5151843;27;20070;-64
2021/12/02 11:42:39;;;;;;;5.68;3.55;;;;;;;-1.62;64.79;97276.28;5151998;27;20070;-63
2021/12/02 11:45:08;;;;;;;6.25;3.85;;;;;;;-1.67;65.35;97275.31;5154866;27;20476;-64
2021/12/02 11:47:34;;;;;;;5.72;3.70;;;;;;;-1.58;65.31;97261.06;5134935;27;20046;-63
2021/12/02 11:50:00;;;;;;;6.85;3.83;;;;;;;-1.53;64.61;97268.19;5152701;27;20039;-64
2021/12/02 11:52:26;;;;;;;13.13;3.75;;;;;;;-1.54;65.30;97254.41;5153742;27;20049;-62
2021/12/02 11:54:53;;;;;;;5.07;3.30;;;;;;;-1.51;65.69;97255.78;5151527;27;20090;-63
2021/12/02 11:57:19;;;;;;;7.90;3.55;;;;;;;-1.44;64.88;97251.31;5151572;27;20026;-62